Impacts TAF Board
For situational awareness. Not to be used for flight planning purposes.
IDs:

KBFD - Bradford Rgnl, PA, US

Issued at 0927 UTC 18 Jan 2022
Updated at 0956 UTC 18 Jan 2022
Potential Impact None Slight Moderate High
Time<<18/22Z 18/23Z 19/00Z 19/01Z 19/02Z 19/03Z 19/04Z 19/05Z 19/06Z 19/07Z 19/08Z 19/09Z 19/10Z>>
Type PRVL PRVL PRVL PRVL PRVL PRVL PRVL PRVL
VIS >6 >6 >6 >6 >6 >6 >6 >6
CIG 20 15 15 15 15 9 9 9
Cover OVC OVC OVC OVC OVC OVC OVC OVC
FltCat MVFR MVFR MVFR MVFR MVFR IFR IFR IFR
WX -- -- -- -- -- -- -- --
WDir 280 190 190 190 190 180 180 180
WSpd 10 8 8 8 8 8 8 8
WGst 17 -- -- -- -- -- -- --
WSHgt -- -- -- -- -- 2000 2000 2000
WSDir -- -- -- -- -- 230 230 230
WSSpd -- -- -- -- -- 45 45 45
Raw TAF
KBFD 180927Z 1809/1906 29014G25KT 5SM -SHSN OVC015
  TEMPO 1809/1813 2SM -SN OVC008
  FM181900 28010G17KT P6SM OVC020
  FM182300 19008KT P6SM OVC015
  FM190300 18008KT P6SM OVC009 WS020/23045KT


METAR Board
Radar Display
Forecast Discussion
For situational awareness. Not to be used for flight planning purposes.